sensor_id;sensor_type;location;lat;lon;timestamp;P1;P4;P2;P0;N10;N4;N25;N1;N05;TS
83491;SPS30;73661;56.120;12.302;2024-03-17T00:02:08;2.58;2.27;1.66;0.86;6.85;6.84;6.75;6.01;4.05;0.94
83491;SPS30;73661;56.120;12.302;2024-03-17T00:04:34;2.59;2.28;1.67;0.88;7.02;7.01;6.93;6.19;4.22;0.92
83491;SPS30;73661;56.120;12.302;2024-03-17T00:07:00;1.79;1.58;1.17;0.64;5.07;5.06;5.00;4.51;3.14;0.90
83491;SPS30;73661;56.120;12.302;2024-03-17T00:09:26;2.56;2.26;1.67;0.91;7.27;7.26;7.17;6.47;4.51;0.90
83491;SPS30;73661;56.120;12.302;2024-03-17T00:11:52;2.25;1.98;1.44;0.75;6.01;6.00;5.92;5.28;3.57;0.94
83491;SPS30;73661;56.120;12.302;2024-03-17T00:14:17;2.31;2.03;1.48;0.77;6.12;6.10;6.03;5.36;3.61;0.94
83491;SPS30;73661;56.120;12.302;2024-03-17T00:16:43;2.65;2.32;1.68;0.85;6.76;6.74;6.65;5.88;3.88;0.95
83491;SPS30;73661;56.120;12.302;2024-03-17T00:19:09;2.08;1.82;1.31;0.65;5.19;5.18;5.10;4.49;2.92;0.97
83491;SPS30;73661;56.120;12.302;2024-03-17T00:21:35;2.14;1.88;1.36;0.69;5.54;5.53;5.45;4.83;3.21;0.95
83491;SPS30;73661;56.120;12.302;2024-03-17T00:24:01;2.09;1.84;1.34;0.69;5.50;5.49;5.41;4.81;3.22;0.93
83491;SPS30;73661;56.120;12.302;2024-03-17T00:26:28;1.76;1.55;1.13;0.58;4.66;4.65;4.59;4.08;2.75;0.91
83491;SPS30;73661;56.120;12.302;2024-03-17T00:28:55;2.64;2.31;1.68;0.86;6.89;6.88;6.79;6.02;4.02;0.92
83491;SPS30;73661;56.120;12.302;2024-03-17T00:31:20;1.95;1.71;1.24;0.64;5.09;5.08;5.02;4.45;2.98;0.93
83491;SPS30;73661;56.120;12.302;2024-03-17T00:33:46;1.84;1.62;1.18;0.61;4.88;4.87;4.81;4.28;2.89;0.92
83491;SPS30;73661;56.120;12.302;2024-03-17T00:36:12;2.03;1.79;1.31;0.69;5.53;5.52;5.45;4.87;3.33;0.91
83491;SPS30;73661;56.120;12.302;2024-03-17T00:38:38;2.53;2.23;1.64;0.87;6.92;6.90;6.82;6.10;4.17;0.91
83491;SPS30;73661;56.120;12.302;2024-03-17T00:41:04;1.99;1.75;1.29;0.68;5.46;5.45;5.38;4.82;3.30;0.90
83491;SPS30;73661;56.120;12.302;2024-03-17T00:43:30;2.46;2.17;1.61;0.87;6.95;6.94;6.86;6.17;4.29;0.89
83491;SPS30;73661;56.120;12.302;2024-03-17T00:45:55;2.66;2.35;1.76;0.98;7.84;7.82;7.74;7.02;4.99;0.87
83491;SPS30;73661;56.120;12.302;2024-03-17T00:48:21;2.15;1.92;1.47;0.86;6.88;6.87;6.80;6.25;4.59;0.83
83491;SPS30;73661;56.120;12.302;2024-03-17T00:50:54;1.38;1.23;0.94;0.55;4.39;4.39;4.35;3.99;2.92;0.83
83491;SPS30;73661;56.120;12.302;2024-03-17T00:53:24;2.01;1.79;1.37;0.82;6.53;6.53;6.47;5.96;4.41;0.83
83491;SPS30;73661;56.120;12.302;2024-03-17T00:55:53;2.35;2.10;1.62;0.98;7.85;7.84;7.77;7.19;5.36;0.83
83491;SPS30;73661;56.120;12.302;2024-03-17T00:58:23;2.01;1.81;1.42;0.89;7.11;7.10;7.05;6.57;5.00;0.81
83491;SPS30;73661;56.120;12.302;2024-03-17T01:00:49;1.80;1.62;1.27;0.81;6.45;6.44;6.39;5.97;4.56;0.82
83491;SPS30;73661;56.120;12.302;2024-03-17T01:03:16;2.12;1.92;1.52;0.98;7.78;7.77;7.72;7.23;5.56;0.82
83491;SPS30;73661;56.120;12.302;2024-03-17T01:05:42;1.79;1.62;1.28;0.83;6.59;6.58;6.53;6.12;4.72;0.81
83491;SPS30;73661;56.120;12.302;2024-03-17T01:08:12;1.94;1.75;1.36;0.84;6.69;6.68;6.63;6.16;4.64;0.84
83491;SPS30;73661;56.120;12.302;2024-03-17T01:10:39;1.91;1.71;1.32;0.80;6.34;6.33;6.28;5.80;4.32;0.85
83491;SPS30;73661;56.120;12.302;2024-03-17T01:13:08;2.13;1.91;1.46;0.88;7.01;7.00;6.94;6.40;4.75;0.86
83491;SPS30;73661;56.120;12.302;2024-03-17T01:15:35;1.83;1.64;1.26;0.75;5.97;5.96;5.90;5.44;4.02;0.87
83491;SPS30;73661;56.120;12.302;2024-03-17T01:18:02;1.43;1.28;0.98;0.59;4.70;4.69;4.65;4.29;3.18;0.86
83491;SPS30;73661;56.120;12.302;2024-03-17T01:20:29;1.99;1.78;1.37;0.82;6.51;6.50;6.44;5.94;4.39;0.86
83491;SPS30;73661;56.120;12.302;2024-03-17T01:22:56;1.46;1.31;1.00;0.60;4.76;4.75;4.71;4.34;3.21;0.87
83491;SPS30;73661;56.120;12.302;2024-03-17T01:25:22;1.93;1.72;1.31;0.77;6.14;6.13;6.07;5.57;4.08;0.86
83491;SPS30;73661;56.120;12.302;2024-03-17T01:27:48;2.13;1.89;1.43;0.82;6.58;6.57;6.50;5.94;4.31;0.87
83491;SPS30;73661;56.120;12.302;2024-03-17T01:30:14;1.49;1.32;0.99;0.56;4.49;4.48;4.43;4.03;2.89;0.88
83491;SPS30;73661;56.120;12.302;2024-03-17T01:32:40;1.60;1.42;1.06;0.60;4.77;4.76;4.71;4.28;3.06;0.87
83491;SPS30;73661;56.120;12.302;2024-03-17T01:35:06;1.57;1.39;1.05;0.59;4.74;4.73;4.68;4.26;3.06;0.86
83491;SPS30;73661;56.120;12.302;2024-03-17T01:37:32;2.08;1.85;1.40;0.80;6.41;6.40;6.34;5.79;4.18;0.85
83491;SPS30;73661;56.120;12.302;2024-03-17T01:39:58;1.69;1.50;1.13;0.64;5.13;5.12;5.07;4.62;3.32;0.86
83491;SPS30;73661;56.120;12.302;2024-03-17T01:42:24;1.77;1.57;1.18;0.67;5.32;5.31;5.26;4.79;3.43;0.87
83491;SPS30;73661;56.120;12.302;2024-03-17T01:44:50;1.96;1.75;1.32;0.76;6.08;6.07;6.01;5.50;3.98;0.86
83491;SPS30;73661;56.120;12.302;2024-03-17T01:47:19;1.77;1.58;1.20;0.70;5.60;5.60;5.54;5.08;3.71;0.85
83491;SPS30;73661;56.120;12.302;2024-03-17T01:49:48;1.74;1.55;1.18;0.69;5.52;5.51;5.46;5.01;3.67;0.85
83491;SPS30;73661;56.120;12.302;2024-03-17T01:52:16;1.89;1.69;1.28;0.75;5.98;5.97;5.92;5.43;3.96;0.84
83491;SPS30;73661;56.120;12.302;2024-03-17T01:54:44;1.42;1.26;0.96;0.55;4.41;4.40;4.36;3.99;2.90;0.84
83491;SPS30;73661;56.120;12.302;2024-03-17T01:57:11;2.01;1.79;1.36;0.79;6.34;6.33;6.27;5.75;4.19;0.84
83491;SPS30;73661;56.120;12.302;2024-03-17T01:59:38;1.83;1.63;1.24;0.73;5.79;5.78;5.73;5.25;3.84;0.84
83491;SPS30;73661;56.120;12.302;2024-03-17T02:02:05;1.78;1.59;1.21;0.71;5.69;5.69;5.63;5.18;3.80;0.84
83491;SPS30;73661;56.120;12.302;2024-03-17T02:04:31;1.82;1.62;1.24;0.74;5.92;5.91;5.85;5.39;3.99;0.83
83491;SPS30;73661;56.120;12.302;2024-03-17T02:06:57;2.16;1.94;1.49;0.91;7.23;7.22;7.16;6.62;4.95;0.82
83491;SPS30;73661;56.120;12.302;2024-03-17T02:09:22;2.80;2.51;1.94;1.18;9.43;9.41;9.33;8.64;6.47;0.82
83491;SPS30;73661;56.120;12.302;2024-03-17T02:11:48;2.00;1.81;1.42;0.90;7.20;7.20;7.14;6.67;5.10;0.79
83491;SPS30;73661;56.120;12.302;2024-03-17T02:14:14;2.78;2.52;2.01;1.31;10.43;10.42;10.35;9.72;7.53;0.77
83491;SPS30;73661;56.120;12.302;2024-03-17T02:16:42;2.51;2.28;1.84;1.24;9.88;9.87;9.80;9.26;7.28;0.76
83491;SPS30;73661;56.120;12.302;2024-03-17T02:19:08;2.90;2.64;2.12;1.41;11.22;11.21;11.14;10.50;8.21;0.77
83491;SPS30;73661;56.120;12.302;2024-03-17T02:21:35;1.91;1.74;1.40;0.93;7.45;7.44;7.39;6.98;5.47;0.77
83491;SPS30;73661;56.120;12.302;2024-03-17T02:24:01;2.49;2.25;1.79;1.17;9.32;9.31;9.24;8.68;6.72;0.79
83491;SPS30;73661;56.120;12.302;2024-03-17T02:26:27;1.92;1.73;1.37;0.88;7.02;7.02;6.96;6.52;5.02;0.79
83491;SPS30;73661;56.120;12.302;2024-03-17T02:28:53;2.04;1.84;1.46;0.95;7.59;7.58;7.53;7.06;5.46;0.79
83491;SPS30;73661;56.120;12.302;2024-03-17T02:31:19;2.26;2.04;1.62;1.05;8.37;8.36;8.30;7.78;6.01;0.80
83491;SPS30;73661;56.120;12.302;2024-03-17T02:33:45;2.52;2.29;1.85;1.24;9.86;9.85;9.78;9.24;7.24;0.78
83491;SPS30;73661;56.120;12.302;2024-03-17T02:36:10;2.55;2.33;1.88;1.27;10.13;10.12;10.05;9.51;7.49;0.78
83491;SPS30;73661;56.120;12.302;2024-03-17T02:38:37;2.24;2.05;1.66;1.13;9.00;8.99;8.93;8.46;6.68;0.77
83491;SPS30;73661;56.120;12.302;2024-03-17T02:41:25;3.18;2.91;2.37;1.62;12.95;12.94;12.86;12.20;9.67;0.77
83491;SPS30;73661;56.120;12.302;2024-03-17T02:43:52;2.38;2.17;1.76;1.20;9.55;9.54;9.48;8.98;7.09;0.77
83491;SPS30;73661;56.120;12.302;2024-03-17T02:46:18;1.47;1.34;1.08;0.72;5.78;5.77;5.74;5.42;4.26;0.78
83491;SPS30;73661;56.120;12.302;2024-03-17T02:48:45;2.32;2.11;1.69;1.12;8.90;8.89;8.83;8.32;6.49;0.80
83491;SPS30;73661;56.120;12.302;2024-03-17T02:51:14;2.01;1.82;1.44;0.94;7.49;7.48;7.43;6.97;5.40;0.81
83491;SPS30;73661;56.120;12.302;2024-03-17T02:53:42;1.35;1.22;0.97;0.62;4.96;4.95;4.92;4.60;3.54;0.82
83491;SPS30;73661;56.120;12.302;2024-03-17T02:56:10;1.68;1.51;1.19;0.74;5.93;5.92;5.87;5.47;4.16;0.83
83491;SPS30;73661;56.120;12.302;2024-03-17T02:58:37;1.53;1.38;1.07;0.67;5.34;5.33;5.29;4.92;3.72;0.84
83491;SPS30;73661;56.120;12.302;2024-03-17T03:01:04;1.31;1.18;0.92;0.56;4.49;4.49;4.45;4.13;3.10;0.85
83491;SPS30;73661;56.120;12.302;2024-03-17T03:03:31;1.63;1.46;1.13;0.68;5.44;5.44;5.39;4.99;3.72;0.86
83491;SPS30;73661;56.120;12.302;2024-03-17T03:05:57;1.49;1.33;1.01;0.59;4.71;4.71;4.66;4.28;3.12;0.88
83491;SPS30;73661;56.120;12.302;2024-03-17T03:08:24;2.30;2.05;1.55;0.89;7.11;7.10;7.02;6.42;4.64;0.89
83491;SPS30;73661;56.120;12.302;2024-03-17T03:10:50;1.57;1.40;1.07;0.62;4.97;4.96;4.92;4.51;3.30;0.87
83491;SPS30;73661;56.120;12.302;2024-03-17T03:13:16;1.31;1.16;0.88;0.51;4.03;4.02;3.98;3.64;2.64;0.88
83491;SPS30;73661;56.120;12.302;2024-03-17T03:15:42;1.15;1.02;0.77;0.44;3.51;3.51;3.47;3.17;2.28;0.87
83491;SPS30;73661;56.120;12.302;2024-03-17T03:18:08;1.43;1.27;0.96;0.55;4.38;4.38;4.33;3.96;2.86;0.87
83491;SPS30;73661;56.120;12.302;2024-03-17T03:20:34;2.06;1.83;1.39;0.80;6.40;6.39;6.33;5.79;4.21;0.85
83491;SPS30;73661;56.120;12.302;2024-03-17T03:23:01;1.44;1.28;0.97;0.57;4.51;4.50;4.46;4.09;2.98;0.86
83491;SPS30;73661;56.120;12.302;2024-03-17T03:25:27;1.88;1.68;1.27;0.74;5.93;5.92;5.86;5.37;3.92;0.86
83491;SPS30;73661;56.120;12.302;2024-03-17T03:27:53;2.04;1.82;1.38;0.81;6.45;6.44;6.38;5.85;4.28;0.87
83491;SPS30;73661;56.120;12.302;2024-03-17T03:30:21;3.30;2.94;2.24;1.31;10.49;10.47;10.37;9.52;6.97;0.87
83491;SPS30;73661;56.120;12.302;2024-03-17T03:32:47;2.12;1.90;1.46;0.87;6.95;6.94;6.87;6.34;4.69;0.86
83491;SPS30;73661;56.120;12.302;2024-03-17T03:35:13;2.00;1.78;1.37;0.82;6.50;6.49;6.43;5.93;4.38;0.86
83491;SPS30;73661;56.120;12.302;2024-03-17T03:37:40;2.23;1.99;1.52;0.90;7.19;7.18;7.11;6.55;4.82;0.86
83491;SPS30;73661;56.120;12.302;2024-03-17T03:40:06;1.28;1.14;0.86;0.50;4.02;4.01;3.97;3.64;2.66;0.87
83491;SPS30;73661;56.120;12.302;2024-03-17T03:42:44;1.72;1.53;1.16;0.68;5.42;5.41;5.36;4.92;3.59;0.87
83491;SPS30;73661;56.120;12.302;2024-03-17T03:45:11;1.93;1.72;1.31;0.77;6.11;6.10;6.05;5.55;4.06;0.85
83491;SPS30;73661;56.120;12.302;2024-03-17T03:47:42;1.61;1.44;1.10;0.66;5.26;5.25;5.20;4.80;3.56;0.83
83491;SPS30;73661;56.120;12.302;2024-03-17T03:50:11;1.87;1.68;1.30;0.79;6.33;6.32;6.26;5.80;4.34;0.82
83491;SPS30;73661;56.120;12.302;2024-03-17T03:52:41;1.10;0.99;0.76;0.46;3.70;3.70;3.66;3.39;2.54;0.83
83491;SPS30;73661;56.120;12.302;2024-03-17T03:55:08;1.12;1.00;0.77;0.46;3.70;3.70;3.66;3.38;2.51;0.84
83491;SPS30;73661;56.120;12.302;2024-03-17T03:57:36;1.36;1.22;0.94;0.57;4.51;4.51;4.47;4.13;3.07;0.83
83491;SPS30;73661;56.120;12.302;2024-03-17T04:00:05;1.35;1.21;0.93;0.57;4.52;4.51;4.47;4.14;3.09;0.82
83491;SPS30;73661;56.120;12.302;2024-03-17T04:02:40;1.70;1.52;1.17;0.71;5.63;5.62;5.57;5.15;3.83;0.83
83491;SPS30;73661;56.120;12.302;2024-03-17T04:05:08;1.05;0.94;0.72;0.43;3.46;3.45;3.42;3.16;2.35;0.83
83491;SPS30;73661;56.120;12.302;2024-03-17T04:07:35;1.15;1.02;0.78;0.46;3.67;3.66;3.63;3.34;2.45;0.84
83491;SPS30;73661;56.120;12.302;2024-03-17T04:10:01;1.38;1.23;0.93;0.54;4.33;4.32;4.28;3.92;2.85;0.85
83491;SPS30;73661;56.120;12.302;2024-03-17T04:12:30;1.46;1.30;0.98;0.56;4.49;4.49;4.44;4.06;2.93;0.86
83491;SPS30;73661;56.120;12.302;2024-03-17T04:14:57;1.42;1.27;0.96;0.56;4.45;4.44;4.40;4.03;2.93;0.85
83491;SPS30;73661;56.120;12.302;2024-03-17T04:17:23;1.88;1.67;1.27;0.73;5.86;5.85;5.79;5.30;3.86;0.86
83491;SPS30;73661;56.120;12.302;2024-03-17T04:19:49;1.35;1.19;0.90;0.51;4.04;4.04;3.99;3.63;2.60;0.87
83491;SPS30;73661;56.120;12.302;2024-03-17T04:22:18;1.78;1.57;1.17;0.65;5.20;5.19;5.13;4.65;3.29;0.88
83491;SPS30;73661;56.120;12.302;2024-03-17T04:24:46;1.68;1.49;1.11;0.61;4.89;4.88;4.82;4.36;3.08;0.88
83491;SPS30;73661;56.120;12.302;2024-03-17T04:27:12;1.79;1.59;1.19;0.67;5.37;5.37;5.31;4.83;3.45;0.86
83491;SPS30;73661;56.120;12.302;2024-03-17T04:29:39;1.71;1.52;1.15;0.66;5.25;5.24;5.19;4.74;3.43;0.84
83491;SPS30;73661;56.120;12.302;2024-03-17T04:32:06;1.42;1.26;0.96;0.56;4.44;4.44;4.39;4.03;2.93;0.83
83491;SPS30;73661;56.120;12.302;2024-03-17T04:34:32;1.68;1.49;1.14;0.67;5.32;5.31;5.26;4.83;3.54;0.83
83491;SPS30;73661;56.120;12.302;2024-03-17T04:36:58;1.32;1.18;0.90;0.53;4.27;4.26;4.22;3.89;2.87;0.82
83491;SPS30;73661;56.120;12.302;2024-03-17T04:39:24;1.08;0.96;0.73;0.43;3.46;3.46;3.42;3.15;2.32;0.82
83491;SPS30;73661;56.120;12.302;2024-03-17T04:41:50;1.58;1.42;1.08;0.65;5.15;5.14;5.09;4.69;3.47;0.82
83491;SPS30;73661;56.120;12.302;2024-03-17T04:44:17;1.32;1.19;0.92;0.56;4.50;4.49;4.45;4.13;3.10;0.80
83491;SPS30;73661;56.120;12.302;2024-03-17T04:46:43;1.15;1.03;0.81;0.51;4.05;4.05;4.01;3.74;2.85;0.79
83491;SPS30;73661;56.120;12.302;2024-03-17T04:49:09;1.17;1.05;0.83;0.53;4.22;4.22;4.19;3.92;3.00;0.78
83491;SPS30;73661;56.120;12.302;2024-03-17T04:51:35;0.78;0.70;0.56;0.36;2.86;2.86;2.84;2.66;2.05;0.77
83491;SPS30;73661;56.120;12.302;2024-03-17T04:54:01;1.13;1.02;0.81;0.53;4.22;4.21;4.18;3.93;3.04;0.78
83491;SPS30;73661;56.120;12.302;2024-03-17T04:56:31;1.16;1.05;0.84;0.55;4.41;4.41;4.38;4.12;3.21;0.77
83491;SPS30;73661;56.120;12.302;2024-03-17T04:58:57;1.22;1.11;0.89;0.59;4.68;4.67;4.64;4.37;3.41;0.76
83491;SPS30;73661;56.120;12.302;2024-03-17T05:01:22;0.92;0.83;0.67;0.45;3.56;3.56;3.53;3.33;2.61;0.75
83491;SPS30;73661;56.120;12.302;2024-03-17T05:03:52;1.16;1.05;0.85;0.57;4.53;4.53;4.50;4.25;3.33;0.75
83491;SPS30;73661;56.120;12.302;2024-03-17T05:06:18;1.26;1.14;0.92;0.61;4.86;4.85;4.82;4.55;3.55;0.75
83491;SPS30;73661;56.120;12.302;2024-03-17T05:08:44;1.45;1.32;1.05;0.69;5.47;5.46;5.42;5.10;3.95;0.75
83491;SPS30;73661;56.120;12.302;2024-03-17T05:11:10;1.10;1.00;0.80;0.53;4.19;4.19;4.16;3.91;3.05;0.75
83491;SPS30;73661;56.120;12.302;2024-03-17T05:13:37;1.01;0.92;0.73;0.48;3.81;3.81;3.78;3.55;2.75;0.75
83491;SPS30;73661;56.120;12.302;2024-03-17T05:16:06;1.11;1.00;0.79;0.51;4.09;4.09;4.06;3.80;2.93;0.76
83491;SPS30;73661;56.120;12.302;2024-03-17T05:18:32;1.09;0.98;0.78;0.50;3.99;3.98;3.95;3.70;2.85;0.76
83491;SPS30;73661;56.120;12.302;2024-03-17T05:21:01;1.46;1.32;1.04;0.67;5.36;5.36;5.32;4.98;3.84;0.76
83491;SPS30;73661;56.120;12.302;2024-03-17T05:23:29;0.97;0.88;0.70;0.45;3.60;3.59;3.57;3.35;2.59;0.77
83491;SPS30;73661;56.120;12.302;2024-03-17T05:25:57;1.17;1.06;0.84;0.55;4.37;4.36;4.33;4.06;3.14;0.78
83491;SPS30;73661;56.120;12.302;2024-03-17T05:28:24;1.52;1.38;1.10;0.72;5.72;5.72;5.68;5.33;4.14;0.78
83491;SPS30;73661;56.120;12.302;2024-03-17T05:30:52;1.64;1.48;1.18;0.76;6.04;6.03;5.99;5.61;4.32;0.79
83491;SPS30;73661;56.120;12.302;2024-03-17T05:33:18;1.84;1.66;1.31;0.83;6.64;6.64;6.58;6.15;4.71;0.79
83491;SPS30;73661;56.120;12.302;2024-03-17T05:35:53;1.15;1.04;0.83;0.53;4.25;4.24;4.21;3.95;3.04;0.78
83491;SPS30;73661;56.120;12.302;2024-03-17T05:38:21;1.49;1.35;1.08;0.71;5.70;5.69;5.65;5.32;4.15;0.77
83491;SPS30;73661;56.120;12.302;2024-03-17T05:41:02;1.71;1.57;1.30;0.92;7.37;7.36;7.32;6.99;5.62;0.70
83491;SPS30;73661;56.120;12.302;2024-03-17T05:43:30;1.06;0.98;0.82;0.59;4.72;4.71;4.69;4.49;3.64;0.69
83491;SPS30;73661;56.120;12.302;2024-03-17T05:46:15;1.15;1.06;0.88;0.64;5.07;5.07;5.04;4.83;3.90;0.69
83491;SPS30;73661;56.120;12.302;2024-03-17T05:48:41;0.97;0.89;0.74;0.52;4.16;4.15;4.13;3.94;3.17;0.70
83491;SPS30;73661;56.120;12.302;2024-03-17T05:51:07;1.17;1.07;0.89;0.62;4.95;4.95;4.92;4.69;3.75;0.71
83491;SPS30;73661;56.120;12.302;2024-03-17T05:53:37;0.99;0.91;0.76;0.54;4.29;4.29;4.26;4.07;3.28;0.71
83491;SPS30;73661;56.120;12.302;2024-03-17T05:56:09;0.92;0.85;0.71;0.51;4.06;4.06;4.04;3.86;3.12;0.69
83491;SPS30;73661;56.120;12.302;2024-03-17T05:58:41;1.04;0.96;0.81;0.59;4.69;4.69;4.66;4.47;3.64;0.68
83491;SPS30;73661;56.120;12.302;2024-03-17T06:01:07;0.89;0.82;0.69;0.51;4.03;4.03;4.01;3.85;3.13;0.68
83491;SPS30;73661;56.120;12.302;2024-03-17T06:03:34;1.01;0.94;0.79;0.58;4.62;4.62;4.59;4.41;3.60;0.67
83491;SPS30;73661;56.120;12.302;2024-03-17T06:06:01;0.82;0.76;0.64;0.48;3.79;3.79;3.77;3.63;2.97;0.67
83491;SPS30;73661;56.120;12.302;2024-03-17T06:08:28;0.96;0.89;0.76;0.56;4.44;4.44;4.42;4.25;3.47;0.67
83491;SPS30;73661;56.120;12.302;2024-03-17T06:10:55;1.17;1.08;0.91;0.67;5.33;5.32;5.30;5.09;4.14;0.68
83491;SPS30;73661;56.120;12.302;2024-03-17T06:13:25;0.92;0.85;0.72;0.53;4.24;4.23;4.22;4.05;3.31;0.68
83491;SPS30;73661;56.120;12.302;2024-03-17T06:15:52;0.82;0.76;0.64;0.48;3.81;3.81;3.79;3.65;2.99;0.67
83491;SPS30;73661;56.120;12.302;2024-03-17T06:18:17;1.02;0.95;0.81;0.61;4.84;4.84;4.82;4.64;3.81;0.67
83491;SPS30;73661;56.120;12.302;2024-03-17T06:20:44;0.84;0.78;0.66;0.49;3.94;3.93;3.92;3.77;3.09;0.67
83491;SPS30;73661;56.120;12.302;2024-03-17T06:23:11;0.95;0.88;0.75;0.55;4.39;4.39;4.37;4.20;3.43;0.67
83491;SPS30;73661;56.120;12.302;2024-03-17T06:25:42;1.04;0.96;0.82;0.61;4.85;4.85;4.83;4.65;3.81;0.67
83491;SPS30;73661;56.120;12.302;2024-03-17T06:28:09;0.80;0.74;0.63;0.47;3.72;3.72;3.70;3.56;2.91;0.67
83491;SPS30;73661;56.120;12.302;2024-03-17T06:30:39;0.93;0.87;0.74;0.55;4.38;4.38;4.36;4.20;3.44;0.67
83491;SPS30;73661;56.120;12.302;2024-03-17T06:33:19;0.88;0.81;0.69;0.52;4.12;4.11;4.10;3.94;3.23;0.67
83491;SPS30;73661;56.120;12.302;2024-03-17T06:35:46;1.02;0.95;0.79;0.57;4.57;4.57;4.55;4.36;3.53;0.69
83491;SPS30;73661;56.120;12.302;2024-03-17T06:38:13;1.10;1.02;0.85;0.60;4.82;4.82;4.80;4.58;3.70;0.70
83491;SPS30;73661;56.120;12.302;2024-03-17T06:40:40;0.88;0.80;0.66;0.47;3.73;3.73;3.71;3.54;2.84;0.71
83491;SPS30;73661;56.120;12.302;2024-03-17T06:43:06;1.12;1.02;0.84;0.59;4.71;4.71;4.68;4.46;3.57;0.71
83491;SPS30;73661;56.120;12.302;2024-03-17T06:45:33;1.24;1.13;0.93;0.65;5.18;5.18;5.15;4.90;3.92;0.71
83491;SPS30;73661;56.120;12.302;2024-03-17T06:47:59;1.36;1.25;1.02;0.70;5.60;5.60;5.56;5.29;4.20;0.72
83491;SPS30;73661;56.120;12.302;2024-03-17T06:50:25;1.08;0.99;0.81;0.56;4.44;4.44;4.41;4.19;3.32;0.72
83491;SPS30;73661;56.120;12.302;2024-03-17T06:52:51;1.16;1.06;0.88;0.61;4.90;4.90;4.87;4.64;3.72;0.71
83491;SPS30;73661;56.120;12.302;2024-03-17T06:55:20;1.11;1.02;0.84;0.59;4.70;4.69;4.67;4.45;3.56;0.71
83491;SPS30;73661;56.120;12.302;2024-03-17T06:57:46;1.24;1.14;0.93;0.64;5.10;5.09;5.06;4.81;3.82;0.72
83491;SPS30;73661;56.120;12.302;2024-03-17T07:00:13;1.35;1.23;1.00;0.68;5.40;5.39;5.36;5.07;4.01;0.73
83491;SPS30;73661;56.120;12.302;2024-03-17T07:02:41;1.07;0.98;0.80;0.55;4.41;4.41;4.38;4.16;3.31;0.72
83491;SPS30;73661;56.120;12.302;2024-03-17T07:05:11;1.22;1.12;0.91;0.63;5.05;5.04;5.01;4.76;3.79;0.72
83491;SPS30;73661;56.120;12.302;2024-03-17T07:07:39;1.48;1.36;1.11;0.77;6.14;6.14;6.10;5.80;4.62;0.72
83491;SPS30;73661;56.120;12.302;2024-03-17T07:10:06;1.17;1.07;0.88;0.62;4.94;4.94;4.91;4.68;3.75;0.71
83491;SPS30;73661;56.120;12.302;2024-03-17T07:12:33;0.90;0.83;0.69;0.50;3.95;3.95;3.93;3.76;3.04;0.69
83491;SPS30;73661;56.120;12.302;2024-03-17T07:14:59;0.97;0.89;0.75;0.54;4.27;4.27;4.25;4.06;3.29;0.69
83491;SPS30;73661;56.120;12.302;2024-03-17T07:17:25;1.05;0.97;0.81;0.58;4.59;4.59;4.56;4.36;3.52;0.70
83491;SPS30;73661;56.120;12.302;2024-03-17T07:19:51;1.28;1.18;0.98;0.70;5.56;5.56;5.53;5.28;4.25;0.70
83491;SPS30;73661;56.120;12.302;2024-03-17T07:22:17;1.21;1.11;0.92;0.66;5.24;5.24;5.21;4.98;4.01;0.70
83491;SPS30;73661;56.120;12.302;2024-03-17T07:24:43;0.93;0.86;0.71;0.51;4.04;4.04;4.01;3.84;3.09;0.71
83491;SPS30;73661;56.120;12.302;2024-03-17T07:27:09;1.03;0.94;0.78;0.55;4.41;4.41;4.39;4.19;3.36;0.71
83491;SPS30;73661;56.120;12.302;2024-03-17T07:29:39;1.02;0.94;0.77;0.54;4.28;4.27;4.25;4.04;3.23;0.72
83491;SPS30;73661;56.120;12.302;2024-03-17T07:32:05;1.17;1.07;0.88;0.60;4.82;4.82;4.79;4.55;3.62;0.73
83491;SPS30;73661;56.120;12.302;2024-03-17T07:34:31;1.41;1.29;1.05;0.71;5.70;5.69;5.66;5.36;4.24;0.74
83491;SPS30;73661;56.120;12.302;2024-03-17T07:36:58;1.17;1.07;0.87;0.59;4.72;4.72;4.69;4.44;3.51;0.73
83491;SPS30;73661;56.120;12.302;2024-03-17T07:39:31;1.26;1.15;0.93;0.64;5.08;5.08;5.05;4.79;3.79;0.72
83491;SPS30;73661;56.120;12.302;2024-03-17T07:42:00;1.40;1.28;1.04;0.70;5.62;5.62;5.58;5.29;4.17;0.73
83491;SPS30;73661;56.120;12.302;2024-03-17T07:44:27;1.28;1.16;0.93;0.62;4.93;4.92;4.89;4.61;3.60;0.75
83491;SPS30;73661;56.120;12.302;2024-03-17T07:47:00;1.08;0.98;0.78;0.52;4.15;4.15;4.12;3.88;3.03;0.75
83491;SPS30;73661;56.120;12.302;2024-03-17T07:49:26;0.95;0.87;0.70;0.46;3.70;3.70;3.67;3.47;2.71;0.74
83491;SPS30;73661;56.120;12.302;2024-03-17T07:51:52;1.41;1.29;1.04;0.69;5.54;5.54;5.50;5.20;4.08;0.75
83491;SPS30;73661;56.120;12.302;2024-03-17T07:54:18;1.23;1.12;0.91;0.61;4.86;4.86;4.83;4.56;3.59;0.76
83491;SPS30;73661;56.120;12.302;2024-03-17T07:56:44;1.10;1.00;0.81;0.55;4.36;4.35;4.32;4.09;3.21;0.76
83491;SPS30;73661;56.120;12.302;2024-03-17T07:59:11;1.02;0.92;0.74;0.49;3.87;3.87;3.84;3.61;2.81;0.78
83491;SPS30;73661;56.120;12.302;2024-03-17T08:01:40;1.20;1.09;0.87;0.56;4.50;4.50;4.47;4.20;3.25;0.79
83491;SPS30;73661;56.120;12.302;2024-03-17T08:04:06;1.34;1.22;0.97;0.63;5.02;5.01;4.98;4.67;3.62;0.79
83491;SPS30;73661;56.120;12.302;2024-03-17T08:06:32;1.47;1.33;1.06;0.69;5.52;5.52;5.48;5.15;3.99;0.78
83491;SPS30;73661;56.120;12.302;2024-03-17T08:08:57;0.93;0.85;0.68;0.46;3.65;3.65;3.62;3.42;2.68;0.76
83491;SPS30;73661;56.120;12.302;2024-03-17T08:11:23;0.82;0.75;0.61;0.42;3.32;3.31;3.29;3.12;2.47;0.75
83491;SPS30;73661;56.120;12.302;2024-03-17T08:13:50;1.12;1.03;0.84;0.58;4.61;4.61;4.58;4.35;3.46;0.74
83491;SPS30;73661;56.120;12.302;2024-03-17T08:16:15;1.03;0.94;0.77;0.53;4.22;4.21;4.19;3.98;3.16;0.74
83491;SPS30;73661;56.120;12.302;2024-03-17T08:18:42;1.21;1.11;0.91;0.64;5.11;5.10;5.08;4.84;3.87;0.72
83491;SPS30;73661;56.120;12.302;2024-03-17T08:21:08;0.85;0.78;0.64;0.45;3.59;3.58;3.56;3.39;2.72;0.72
83491;SPS30;73661;56.120;12.302;2024-03-17T08:23:34;0.84;0.77;0.64;0.45;3.57;3.57;3.55;3.38;2.71;0.73
83491;SPS30;73661;56.120;12.302;2024-03-17T08:26:04;1.24;1.14;0.94;0.66;5.28;5.28;5.25;5.01;4.02;0.72
83491;SPS30;73661;56.120;12.302;2024-03-17T08:28:30;0.98;0.90;0.75;0.54;4.27;4.27;4.25;4.06;3.27;0.71
83491;SPS30;73661;56.120;12.302;2024-03-17T08:30:57;1.00;0.93;0.77;0.55;4.39;4.39;4.37;4.17;3.37;0.71
83491;SPS30;73661;56.120;12.302;2024-03-17T08:33:24;0.97;0.89;0.74;0.52;4.15;4.14;4.12;3.93;3.15;0.72
83491;SPS30;73661;56.120;12.302;2024-03-17T08:38:20;1.12;1.03;0.85;0.60;4.77;4.77;4.74;4.52;3.62;0.73
83491;SPS30;73661;56.120;12.302;2024-03-17T08:40:52;1.04;0.95;0.78;0.54;4.31;4.30;4.28;4.06;3.23;0.74
83491;SPS30;73661;56.120;12.302;2024-03-17T08:43:18;0.85;0.78;0.64;0.44;3.52;3.52;3.50;3.33;2.65;0.74
83491;SPS30;73661;56.120;12.302;2024-03-17T08:45:59;1.23;1.13;0.93;0.64;5.14;5.14;5.11;4.86;3.87;0.74
83491;SPS30;73661;56.120;12.302;2024-03-17T08:48:29;1.30;1.19;0.97;0.66;5.30;5.29;5.26;4.99;3.96;0.74
83491;SPS30;73661;56.120;12.302;2024-03-17T08:50:56;1.68;1.54;1.28;0.90;7.22;7.21;7.18;6.85;5.51;0.72
83491;SPS30;73661;56.120;12.302;2024-03-17T08:53:23;1.56;1.45;1.24;0.92;7.38;7.38;7.34;7.08;5.81;0.68
83491;SPS30;73661;56.120;12.302;2024-03-17T08:55:49;1.23;1.15;1.00;0.77;6.12;6.12;6.10;5.90;4.90;0.65
83491;SPS30;73661;56.120;12.302;2024-03-17T08:58:16;0.96;0.90;0.78;0.60;4.77;4.77;4.75;4.60;3.81;0.65
83491;SPS30;73661;56.120;12.302;2024-03-17T09:00:42;0.89;0.83;0.71;0.54;4.30;4.30;4.28;4.14;3.41;0.66
83491;SPS30;73661;56.120;12.302;2024-03-17T09:03:08;0.94;0.87;0.74;0.56;4.45;4.45;4.43;4.27;3.51;0.67
83491;SPS30;73661;56.120;12.302;2024-03-17T09:05:41;0.89;0.83;0.70;0.53;4.20;4.20;4.18;4.03;3.31;0.67
83491;SPS30;73661;56.120;12.302;2024-03-17T09:10:53;0.79;0.73;0.63;0.47;3.75;3.74;3.73;3.59;2.95;0.67
83491;SPS30;73661;56.120;12.302;2024-03-17T09:13:20;0.99;0.92;0.79;0.59;4.69;4.69;4.67;4.50;3.69;0.68
83491;SPS30;73661;56.120;12.302;2024-03-17T09:18:27;0.94;0.87;0.74;0.54;4.31;4.30;4.28;4.11;3.35;0.70
83491;SPS30;73661;56.120;12.302;2024-03-17T09:20:56;0.94;0.87;0.73;0.52;4.19;4.18;4.16;3.99;3.23;0.71
83491;SPS30;73661;56.120;12.302;2024-03-17T09:23:22;0.99;0.91;0.77;0.56;4.44;4.44;4.42;4.23;3.44;0.71
83491;SPS30;73661;56.120;12.302;2024-03-17T09:25:58;0.75;0.69;0.58;0.42;3.34;3.34;3.32;3.18;2.57;0.71
83491;SPS30;73661;56.120;12.302;2024-03-17T09:28:33;0.84;0.77;0.64;0.46;3.67;3.67;3.65;3.49;2.82;0.72
83491;SPS30;73661;56.120;12.302;2024-03-17T09:31:00;0.80;0.74;0.61;0.44;3.50;3.50;3.48;3.33;2.69;0.72
83491;SPS30;73661;56.120;12.302;2024-03-17T09:33:27;0.91;0.83;0.69;0.49;3.93;3.93;3.91;3.73;3.01;0.72
83491;SPS30;73661;56.120;12.302;2024-03-17T09:36:00;1.37;1.26;1.05;0.75;5.96;5.96;5.92;5.66;4.56;0.71
83491;SPS30;73661;56.120;12.302;2024-03-17T09:38:34;1.01;0.94;0.79;0.57;4.54;4.53;4.51;4.32;3.50;0.70
83491;SPS30;73661;56.120;12.302;2024-03-17T09:41:01;0.95;0.88;0.74;0.53;4.25;4.25;4.23;4.05;3.28;0.70
83491;SPS30;73661;56.120;12.302;2024-03-17T09:43:28;0.76;0.70;0.59;0.42;3.36;3.35;3.34;3.19;2.58;0.70